Time;durP1;ratioP1;P1;durP2;ratioP2;P2;SDS_P1;SDS_P2;PMS_P1;PMS_P2;Temp;Humidity;BMP_temperature;BMP_pressure;BME280_temperature;BME280_humidity;BME280_pressure;Samples;Min_cycle;Max_cycle;Signal;HPM_P1;HPM_P2
2021/03/11 00:02:06;;;;;;;;;;;19.60;52.80;;;;;;5034694;28;1902;-71
2021/03/11 00:04:32;;;;;;;;;;;19.60;52.80;;;;;;5034788;28;1609;-71
2021/03/11 00:06:57;;;;;;;;;;;19.60;52.80;;;;;;5033718;28;1635;-71
2021/03/11 00:09:23;;;;;;;;;;;19.60;52.80;;;;;;5035473;28;1761;-71
2021/03/11 00:11:48;;;;;;;;;;;19.60;52.80;;;;;;5035274;28;1671;-69
2021/03/11 00:14:14;;;;;;;;;;;19.60;52.80;;;;;;5027010;28;1691;-69
2021/03/11 00:16:39;;;;;;;;;;;19.60;52.80;;;;;;5028959;28;1520;-70
2021/03/11 00:19:04;;;;;;;;;;;19.60;52.80;;;;;;5034657;28;1284;-69
2021/03/11 00:21:30;;;;;;;;;;;19.60;52.80;;;;;;5035721;28;1967;-69
2021/03/11 00:23:55;;;;;;;;;;;19.60;52.90;;;;;;5034209;28;1733;-70
2021/03/11 00:26:21;;;;;;;;;;;19.50;52.80;;;;;;5035279;28;1390;-69
2021/03/11 00:28:46;;;;;;;;;;;19.50;52.80;;;;;;5034944;28;1433;-70
2021/03/11 00:31:11;;;;;;;;;;;19.50;52.80;;;;;;5049947;28;1347;-70
2021/03/11 00:33:37;;;;;;;;;;;19.50;52.80;;;;;;5021611;28;1540;-70
2021/03/11 00:36:02;;;;;;;;;;;19.50;52.80;;;;;;5034299;28;1619;-72
2021/03/11 00:38:28;;;;;;;;;;;19.50;52.90;;;;;;5034233;28;1667;-72
2021/03/11 00:40:53;;;;;;;;;;;19.50;52.90;;;;;;5034987;28;1404;-71
2021/03/11 00:43:19;;;;;;;;;;;19.50;52.90;;;;;;5033891;28;1898;-71
2021/03/11 00:45:47;;;;;;;;;;;19.50;52.90;;;;;;5035001;28;1677;-71
2021/03/11 00:48:13;;;;;;;;;;;19.50;52.90;;;;;;5034837;28;1434;-72
2021/03/11 00:50:38;;;;;;;;;;;19.50;52.90;;;;;;5035079;28;1664;-70
2021/03/11 00:53:03;;;;;;;;;;;19.50;52.90;;;;;;5034812;28;1657;-73
2021/03/11 00:55:29;;;;;;;;;;;19.50;52.90;;;;;;5033583;28;1641;-71
2021/03/11 00:57:54;;;;;;;;;;;19.50;52.90;;;;;;5032272;28;1032;-69
2021/03/11 01:00:20;;;;;;;;;;;19.50;52.90;;;;;;5034331;28;1345;-70
2021/03/11 01:02:46;;;;;;;;;;;19.50;52.90;;;;;;5033716;28;2023;-69
2021/03/11 01:05:12;;;;;;;;;;;19.50;53.00;;;;;;5034229;28;1660;-70
2021/03/11 01:07:37;;;;;;;;;;;19.50;53.00;;;;;;5033751;28;1718;-70
2021/03/11 01:10:03;;;;;;;;;;;19.50;53.00;;;;;;5034077;28;1789;-70
2021/03/11 01:12:28;;;;;;;;;;;19.50;53.00;;;;;;5033348;28;1597;-70
2021/03/11 01:14:53;;;;;;;;;;;19.50;53.00;;;;;;5034231;28;1386;-69
2021/03/11 01:17:19;;;;;;;;;;;19.40;53.00;;;;;;5032790;28;1511;-70
2021/03/11 01:19:44;;;;;;;;;;;19.40;53.00;;;;;;5033676;28;1589;-71
2021/03/11 01:22:10;;;;;;;;;;;19.40;53.00;;;;;;5033522;28;1958;-71
2021/03/11 01:24:35;;;;;;;;;;;19.40;53.00;;;;;;5033542;28;1666;-70
2021/03/11 01:27:01;;;;;;;;;;;19.40;53.00;;;;;;5034286;28;1636;-71
2021/03/11 01:29:26;;;;;;;;;;;19.40;53.00;;;;;;5033984;28;1667;-71
2021/03/11 01:31:51;;;;;;;;;;;19.40;53.00;;;;;;5034181;28;1407;-70
2021/03/11 01:34:17;;;;;;;;;;;19.40;53.70;;;;;;5034022;28;1402;-70
2021/03/11 01:36:42;;;;;;;;;;;19.40;53.10;;;;;;5034084;28;1523;-70
2021/03/11 01:39:08;;;;;;;;;;;19.40;53.10;;;;;;5033245;28;965;-72
2021/03/11 01:41:33;;;;;;;;;;;19.40;53.10;;;;;;5032805;28;1906;-71
2021/03/11 01:43:59;;;;;;;;;;;19.40;53.10;;;;;;5031972;28;1587;-72
2021/03/11 01:46:24;;;;;;;;;;;19.40;53.10;;;;;;5015010;28;1618;-72
2021/03/11 01:48:49;;;;;;;;;;;19.40;53.10;;;;;;5023707;28;1668;-71
2021/03/11 01:51:15;;;;;;;;;;;19.40;53.10;;;;;;5033476;28;1626;-74
2021/03/11 01:53:40;;;;;;;;;;;19.40;53.10;;;;;;5022319;28;1603;-73
2021/03/11 01:56:06;;;;;;;;;;;19.40;53.10;;;;;;5030752;28;1489;-74
2021/03/11 01:58:31;;;;;;;;;;;19.40;53.20;;;;;;5022305;28;1613;-73
2021/03/11 02:00:57;;;;;;;;;;;19.40;53.20;;;;;;5011852;28;1593;-73
2021/03/11 02:03:22;;;;;;;;;;;19.30;53.10;;;;;;5038547;28;1972;-73
2021/03/11 02:05:47;;;;;;;;;;;19.30;53.10;;;;;;5033027;28;1656;-73
2021/03/11 02:08:13;;;;;;;;;;;19.30;53.10;;;;;;5021609;28;1605;-73
2021/03/11 02:10:38;;;;;;;;;;;19.30;53.10;;;;;;5029169;28;1845;-72
2021/03/11 02:13:23;;;;;;;;;;;19.30;53.20;;;;;;5021164;28;1876;-73
2021/03/11 02:15:49;;;;;;;;;;;19.30;53.20;;;;;;5020236;28;1296;-71
2021/03/11 02:18:19;;;;;;;;;;;19.30;53.20;;;;;;5030760;28;1455;-71
2021/03/11 02:21:04;;;;;;;;;;;19.30;53.20;;;;;;5031900;28;1375;-71
2021/03/11 02:23:48;;;;;;;;;;;19.40;53.30;;;;;;5031094;28;1914;-72
2021/03/11 02:26:21;;;;;;;;;;;19.30;53.20;;;;;;5032610;28;1549;-72
2021/03/11 02:28:47;;;;;;;;;;;19.30;53.20;;;;;;5030836;28;1646;-72
2021/03/11 02:31:13;;;;;;;;;;;19.30;53.20;;;;;;5033112;28;1641;-72
2021/03/11 02:33:38;;;;;;;;;;;19.30;53.20;;;;;;5028522;28;1648;-71
2021/03/11 02:36:04;;;;;;;;;;;19.30;53.20;;;;;;5021449;28;1685;-69
2021/03/11 02:38:29;;;;;;;;;;;19.30;53.20;;;;;;5033577;28;1520;-69
2021/03/11 02:40:55;;;;;;;;;;;19.30;53.20;;;;;;5031529;28;1610;-71
2021/03/11 02:43:21;;;;;;;;;;;19.30;53.20;;;;;;5011728;28;1953;-70
2021/03/11 02:45:46;;;;;;;;;;;19.30;53.20;;;;;;5011308;28;1668;-71
2021/03/11 02:48:12;;;;;;;;;;;19.30;53.20;;;;;;5010588;28;1542;-70
2021/03/11 02:50:37;;;;;;;;;;;19.30;53.20;;;;;;5024657;28;1637;-71
2021/03/11 02:53:05;;;;;;;;;;;19.30;53.10;;;;;;5012693;28;1706;-71
2021/03/11 02:55:30;;;;;;;;;;;19.30;53.10;;;;;;5024913;28;1675;-71
2021/03/11 02:57:56;;;;;;;;;;;19.30;53.10;;;;;;5011854;28;1722;-71
2021/03/11 03:00:21;;;;;;;;;;;19.30;53.10;;;;;;5011419;28;1018;-73
2021/03/11 03:02:47;;;;;;;;;;;19.40;53.10;;;;;;5031647;28;1959;-71
2021/03/11 03:05:14;;;;;;;;;;;19.40;53.10;;;;;;5032797;28;1724;-71
2021/03/11 03:07:42;;;;;;;;;;;19.40;53.60;;;;;;4995962;28;1349;-71
2021/03/11 03:10:08;;;;;;;;;;;19.40;53.10;;;;;;5024754;28;1191;-69
2021/03/11 03:12:34;;;;;;;;;;;19.40;53.00;;;;;;5031457;28;1345;-69
2021/03/11 03:15:00;;;;;;;;;;;19.40;53.00;;;;;;5018453;28;1357;-69
2021/03/11 03:17:25;;;;;;;;;;;19.40;53.50;;;;;;5030638;28;1406;-69
2021/03/11 03:19:51;;;;;;;;;;;19.40;52.90;;;;;;5022565;28;1630;-70
2021/03/11 03:22:16;;;;;;;;;;;19.40;52.90;;;;;;5029543;28;1968;-70
2021/03/11 03:24:42;;;;;;;;;;;19.40;53.00;;;;;;5033662;28;1375;-71
2021/03/11 03:27:08;;;;;;;;;;;19.40;53.00;;;;;;5027644;28;1415;-71
2021/03/11 03:29:34;;;;;;;;;;;19.40;52.90;;;;;;5032088;28;1295;-70
2021/03/11 03:31:59;;;;;;;;;;;19.40;52.90;;;;;;5028072;28;1216;-70
2021/03/11 03:34:25;;;;;;;;;;;19.40;52.90;;;;;;5028255;28;1346;-70
2021/03/11 03:36:50;;;;;;;;;;;19.40;52.90;;;;;;5030085;28;1323;-68
2021/03/11 03:39:15;;;;;;;;;;;19.40;52.80;;;;;;5023670;28;1316;-70
2021/03/11 03:41:47;;;;;;;;;;;19.50;52.90;;;;;;5027454;28;1906;-71
2021/03/11 03:44:12;;;;;;;;;;;19.50;52.70;;;;;;5025954;28;1397;-69
2021/03/11 03:46:38;;;;;;;;;;;19.60;52.70;;;;;;5028852;28;1400;-69
2021/03/11 03:49:03;;;;;;;;;;;19.70;52.50;;;;;;5033201;28;1225;-69
2021/03/11 03:51:29;;;;;;;;;;;19.80;52.30;;;;;;5035101;28;1643;-70
2021/03/11 03:53:56;;;;;;;;;;;19.90;52.10;;;;;;5021881;28;1201;-70
2021/03/11 03:56:26;;;;;;;;;;;20.00;51.80;;;;;;5014680;28;1144;-69
2021/03/11 03:58:53;;;;;;;;;;;20.10;51.60;;;;;;5014604;28;1384;-70
2021/03/11 04:01:18;;;;;;;;;;;20.20;51.40;;;;;;5027492;28;1306;-70
2021/03/11 04:03:45;;;;;;;;;;;20.30;51.20;;;;;;5014807;28;1891;-70
2021/03/11 04:06:10;;;;;;;;;;;20.40;51.00;;;;;;5021225;28;1217;-70
2021/03/11 04:08:35;;;;;;;;;;;20.50;50.80;;;;;;5033736;28;1137;-70
2021/03/11 04:11:01;;;;;;;;;;;20.50;50.70;;;;;;5021358;28;1422;-69
2021/03/11 04:13:28;;;;;;;;;;;20.60;50.50;;;;;;5034192;28;1320;-69
2021/03/11 04:15:54;;;;;;;;;;;20.60;50.40;;;;;;5021353;28;1275;-69
2021/03/11 04:18:20;;;;;;;;;;;20.70;50.30;;;;;;5033952;28;1171;-70
2021/03/11 04:20:45;;;;;;;;;;;20.80;50.30;;;;;;5035378;28;1316;-69
2021/03/11 04:23:11;;;;;;;;;;;20.80;50.10;;;;;;5020823;28;1898;-69
2021/03/11 04:25:36;;;;;;;;;;;20.80;50.10;;;;;;5034214;28;1303;-70
2021/03/11 04:28:02;;;;;;;;;;;20.90;50.00;;;;;;5033703;28;1053;-69
2021/03/11 04:30:27;;;;;;;;;;;20.90;49.90;;;;;;5033845;28;997;-71
2021/03/11 04:32:53;;;;;;;;;;;20.90;49.90;;;;;;5023824;28;1302;-70
2021/03/11 04:35:18;;;;;;;;;;;21.00;49.80;;;;;;5033994;28;1227;-71
2021/03/11 04:37:43;;;;;;;;;;;21.00;49.80;;;;;;5034806;28;1369;-71
2021/03/11 04:40:09;;;;;;;;;;;21.00;49.70;;;;;;5034017;28;1327;-70
2021/03/11 04:42:35;;;;;;;;;;;21.10;49.70;;;;;;5033592;28;1922;-71
2021/03/11 04:45:01;;;;;;;;;;;21.10;49.60;;;;;;5020901;28;1530;-71
2021/03/11 04:47:26;;;;;;;;;;;21.10;49.60;;;;;;5033369;28;1089;-71
2021/03/11 04:49:51;;;;;;;;;;;21.10;49.60;;;;;;5014186;28;1168;-71
2021/03/11 04:52:17;;;;;;;;;;;21.20;49.50;;;;;;5013938;28;1080;-71
2021/03/11 04:54:42;;;;;;;;;;;21.20;49.50;;;;;;5019240;28;1321;-71
2021/03/11 04:57:08;;;;;;;;;;;21.20;49.50;;;;;;5034614;28;1151;-71
2021/03/11 04:59:33;;;;;;;;;;;21.20;49.40;;;;;;5033114;28;1335;-71
2021/03/11 05:02:00;;;;;;;;;;;21.20;49.40;;;;;;5033458;28;1910;-71
2021/03/11 05:04:25;;;;;;;;;;;21.30;50.00;;;;;;5032946;28;1349;-71
2021/03/11 05:06:50;;;;;;;;;;;21.30;49.40;;;;;;5050132;28;1264;-71
2021/03/11 05:09:16;;;;;;;;;;;21.30;49.40;;;;;;5033958;28;1080;-71
2021/03/11 05:11:42;;;;;;;;;;;21.30;49.40;;;;;;5033333;28;1072;-72
2021/03/11 05:14:07;;;;;;;;;;;21.30;49.40;;;;;;5033950;28;1338;-72
2021/03/11 05:16:33;;;;;;;;;;;21.40;49.40;;;;;;5021730;28;1092;-72
2021/03/11 05:18:58;;;;;;;;;;;21.30;49.30;;;;;;5033847;28;1204;-71
2021/03/11 05:21:24;;;;;;;;;;;21.40;49.30;;;;;;5034008;28;1068;-71
2021/03/11 05:23:49;;;;;;;;;;;21.40;49.30;;;;;;5016317;28;1965;-71
2021/03/11 05:26:14;;;;;;;;;;;21.40;49.30;;;;;;5033903;28;824;-71
2021/03/11 05:28:40;;;;;;;;;;;21.40;49.30;;;;;;5033844;28;1339;-71
2021/03/11 05:31:05;;;;;;;;;;;21.40;49.30;;;;;;5028407;28;1123;-70
2021/03/11 05:33:31;;;;;;;;;;;21.40;49.30;;;;;;5033107;28;1124;-71
2021/03/11 05:35:56;;;;;;;;;;;21.40;49.30;;;;;;5032708;28;1359;-72
2021/03/11 05:38:22;;;;;;;;;;;21.40;49.20;;;;;;5034015;28;1175;-71
2021/03/11 05:40:51;;;;;;;;;;;21.40;49.20;;;;;;5049005;28;1649;-71
2021/03/11 05:43:16;;;;;;;;;;;21.40;49.20;;;;;;5033716;28;1961;-72
2021/03/11 05:45:42;;;;;;;;;;;21.40;49.20;;;;;;5031506;28;1227;-71
2021/03/11 05:48:07;;;;;;;;;;;21.40;49.20;;;;;;5033240;28;1164;-71
2021/03/11 05:50:32;;;;;;;;;;;21.50;49.30;;;;;;5032591;28;1132;-72
2021/03/11 05:52:58;;;;;;;;;;;21.50;49.30;;;;;;5033514;28;1316;-72
2021/03/11 05:55:24;;;;;;;;;;;21.50;49.30;;;;;;5033842;28;1201;-70
2021/03/11 05:57:49;;;;;;;;;;;21.50;49.30;;;;;;5031868;28;1087;-71
2021/03/11 06:00:15;;;;;;;;;;;21.50;49.90;;;;;;5032431;28;1278;-71
2021/03/11 06:02:42;;;;;;;;;;;21.50;49.30;;;;;;5032067;28;1954;-72
2021/03/11 06:05:07;;;;;;;;;;;21.50;49.30;;;;;;5032160;28;1215;-72
2021/03/11 06:07:33;;;;;;;;;;;21.40;49.30;;;;;;5031601;28;1121;-72
2021/03/11 06:10:05;;;;;;;;;;;21.40;49.30;;;;;;5032313;28;1272;-70
2021/03/11 06:12:31;;;;;;;;;;;21.40;49.30;;;;;;5032016;28;1341;-70
2021/03/11 06:14:57;;;;;;;;;;;21.50;49.40;;;;;;5048633;28;1270;-71
2021/03/11 06:17:22;;;;;;;;;;;21.40;49.40;;;;;;5032037;28;1179;-71
2021/03/11 06:19:48;;;;;;;;;;;21.40;49.40;;;;;;5019332;28;1144;-71
2021/03/11 06:22:13;;;;;;;;;;;21.40;49.50;;;;;;5012166;28;1945;-71
2021/03/11 06:24:39;;;;;;;;;;;21.40;50.10;;;;;;5025779;28;1343;-72
2021/03/11 06:27:04;;;;;;;;;;;21.40;49.60;;;;;;5012737;28;1311;-72
2021/03/11 06:29:39;;;;;;;;;;;21.40;49.60;;;;;;5025233;28;1079;-71
2021/03/11 06:32:05;;;;;;;;;;;21.30;49.60;;;;;;5026214;28;1177;-71
2021/03/11 06:34:43;;;;;;;;;;;21.30;49.70;;;;;;5032904;28;1347;-70
2021/03/11 06:37:12;;;;;;;;;;;21.30;49.70;;;;;;5032806;28;1112;-71
2021/03/11 06:39:38;;;;;;;;;;;21.30;49.70;;;;;;5032683;28;1152;-71
2021/03/11 06:42:04;;;;;;;;;;;21.20;49.80;;;;;;5032973;28;1898;-71
2021/03/11 06:44:35;;;;;;;;;;;21.20;50.40;;;;;;5031576;28;1305;-71
2021/03/11 06:47:02;;;;;;;;;;;21.20;49.90;;;;;;5032724;28;1056;-69
2021/03/11 06:49:27;;;;;;;;;;;21.20;50.00;;;;;;5031435;28;1213;-71
2021/03/11 06:52:11;;;;;;;;;;;21.20;50.00;;;;;;5033968;28;1086;-71
2021/03/11 06:54:49;;;;;;;;;;;21.20;50.10;;;;;;5032768;28;1322;-71
2021/03/11 06:57:23;;;;;;;;;;;21.10;50.10;;;;;;5032227;28;1064;-71
2021/03/11 06:59:48;;;;;;;;;;;21.10;50.10;;;;;;5031700;28;1092;-71
2021/03/11 07:02:14;;;;;;;;;;;21.10;50.20;;;;;;5032427;28;1898;-70
2021/03/11 07:04:39;;;;;;;;;;;21.10;50.20;;;;;;5031161;28;1207;-71
2021/03/11 07:07:14;;;;;;;;;;;21.00;50.20;;;;;;5030968;28;1063;-71
2021/03/11 07:09:40;;;;;;;;;;;21.00;50.20;;;;;;5031825;28;1253;-71
2021/03/11 07:12:05;;;;;;;;;;;21.00;50.30;;;;;;5032265;28;1128;-71
2021/03/11 07:14:31;;;;;;;;;;;21.00;50.30;;;;;;5024085;28;2127;-70
2021/03/11 07:17:15;;;;;;;;;;;20.90;50.40;;;;;;5016982;28;1074;-67
2021/03/11 07:19:40;;;;;;;;;;;20.90;50.40;;;;;;5019682;28;1190;-68
2021/03/11 07:22:07;;;;;;;;;;;20.90;50.40;;;;;;5013787;28;1987;-68
2021/03/11 07:24:32;;;;;;;;;;;20.90;50.50;;;;;;5021157;28;1363;-68
2021/03/11 07:26:58;;;;;;;;;;;20.90;50.50;;;;;;5030899;28;1158;-68
2021/03/11 07:29:23;;;;;;;;;;;20.80;50.50;;;;;;5027058;28;1128;-68
2021/03/11 07:31:55;;;;;;;;;;;20.80;50.50;;;;;;5023779;28;1328;-69
2021/03/11 07:34:23;;;;;;;;;;;20.80;50.60;;;;;;5023620;28;1306;-69
2021/03/11 07:36:49;;;;;;;;;;;20.80;50.70;;;;;;5030070;28;1182;-67
2021/03/11 07:39:14;;;;;;;;;;;20.80;50.70;;;;;;5028918;28;1277;-68
2021/03/11 07:41:39;;;;;;;;;;;20.80;50.80;;;;;;5017891;28;1887;-67
2021/03/11 07:44:05;;;;;;;;;;;20.80;50.80;;;;;;5030588;28;1369;-68
2021/03/11 07:46:30;;;;;;;;;;;20.70;50.80;;;;;;5030054;28;1355;-69
2021/03/11 07:48:56;;;;;;;;;;;20.70;50.90;;;;;;5029396;28;1057;-71
2021/03/11 07:51:21;;;;;;;;;;;20.70;50.90;;;;;;5032214;28;1130;-70
2021/03/11 07:53:47;;;;;;;;;;;20.70;50.90;;;;;;5030772;28;1301;-70
2021/03/11 07:56:12;;;;;;;;;;;20.70;51.00;;;;;;5030987;28;1463;-70
2021/03/11 07:58:38;;;;;;;;;;;20.70;51.00;;;;;;5030617;28;1347;-69
2021/03/11 08:01:03;;;;;;;;;;;20.60;51.00;;;;;;5032341;28;1336;-70
2021/03/11 08:03:29;;;;;;;;;;;20.60;51.00;;;;;;5032149;28;1894;-69
2021/03/11 08:05:54;;;;;;;;;;;20.60;51.10;;;;;;5030948;28;1356;-70
2021/03/11 08:08:25;;;;;;;;;;;20.60;51.10;;;;;;5033491;28;1325;-70
2021/03/11 08:10:51;;;;;;;;;;;20.60;51.10;;;;;;5035621;28;1357;-69
2021/03/11 08:13:29;;;;;;;;;;;20.60;51.20;;;;;;5035626;28;1270;-70
2021/03/11 08:15:54;;;;;;;;;;;20.50;51.20;;;;;;5035214;28;1359;-69
2021/03/11 08:18:32;;;;;;;;;;;20.50;51.20;;;;;;5034057;28;1393;-69
2021/03/11 08:20:57;;;;;;;;;;;20.50;51.20;;;;;;5035517;28;1339;-69
2021/03/11 08:23:26;;;;;;;;;;;20.50;51.20;;;;;;5034166;28;1886;-69
2021/03/11 08:25:52;;;;;;;;;;;20.50;51.30;;;;;;5050351;28;1266;-70
2021/03/11 08:28:17;;;;;;;;;;;20.50;51.30;;;;;;5035028;28;1259;-70
2021/03/11 08:30:46;;;;;;;;;;;20.50;51.40;;;;;;5035158;28;1317;-69
2021/03/11 08:33:32;;;;;;;;;;;20.50;51.40;;;;;;5035552;28;1276;-69
2021/03/11 08:35:58;;;;;;;;;;;20.50;51.40;;;;;;5024127;28;1521;-69
2021/03/11 08:38:23;;;;;;;;;;;20.50;51.40;;;;;;5033468;28;1179;-70
2021/03/11 08:40:51;;;;;;;;;;;20.50;51.40;;;;;;5035060;28;1307;-70
2021/03/11 08:43:35;;;;;;;;;;;20.40;51.40;;;;;;5034967;28;1951;-70
2021/03/11 08:46:06;;;;;;;;;;;20.40;51.50;;;;;;5034748;28;1326;-69
2021/03/11 08:48:38;;;;;;;;;;;20.40;51.50;;;;;;5034732;28;1275;-69
2021/03/11 08:51:04;;;;;;;;;;;20.40;51.60;;;;;;5034699;28;1336;-69
2021/03/11 08:53:36;;;;;;;;;;;20.40;51.60;;;;;;5033578;28;1394;-70
2021/03/11 08:56:16;;;;;;;;;;;20.30;51.60;;;;;;5033829;28;1862;-69
2021/03/11 08:59:11;;;;;;;;;;;20.40;51.70;;;;;;5028628;28;2538;-69
2021/03/11 09:01:38;;;;;;;;;;;20.30;51.60;;;;;;5013960;28;1961;-69
2021/03/11 09:04:18;;;;;;;;;;;20.30;51.70;;;;;;5034229;28;1370;-69
2021/03/11 09:06:50;;;;;;;;;;;20.30;51.70;;;;;;5034496;28;1443;-69
2021/03/11 09:09:15;;;;;;;;;;;20.30;51.70;;;;;;5033338;28;1358;-69
2021/03/11 09:11:52;;;;;;;;;;;20.30;51.80;;;;;;5026991;28;1127;-69
2021/03/11 09:14:17;;;;;;;;;;;20.30;51.80;;;;;;5020696;28;1420;-69
2021/03/11 09:16:43;;;;;;;;;;;20.30;51.80;;;;;;5033014;28;1546;-69
2021/03/11 09:19:08;;;;;;;;;;;20.30;51.80;;;;;;5031987;28;1197;-69
2021/03/11 09:21:33;;;;;;;;;;;20.20;51.80;;;;;;5034388;28;1392;-69
2021/03/11 09:23:59;;;;;;;;;;;20.20;51.80;;;;;;5034159;28;1974;-69
2021/03/11 09:26:28;;;;;;;;;;;20.20;51.90;;;;;;5034077;28;1333;-69
2021/03/11 09:28:54;;;;;;;;;;;20.20;51.90;;;;;;5032733;28;1287;-69
2021/03/11 09:31:22;;;;;;;;;;;20.20;51.90;;;;;;5026711;28;1405;-69
2021/03/11 09:33:47;;;;;;;;;;;20.20;52.00;;;;;;5034071;28;1283;-68
2021/03/11 09:36:15;;;;;;;;;;;20.20;52.00;;;;;;5034167;28;1381;-69
2021/03/11 09:38:40;;;;;;;;;;;20.20;52.00;;;;;;5033713;28;1158;-69
2021/03/11 09:41:06;;;;;;;;;;;20.20;52.00;;;;;;5032752;28;1600;-69
2021/03/11 09:43:35;;;;;;;;;;;20.10;52.00;;;;;;5033862;28;1953;-69
2021/03/11 09:46:08;;;;;;;;;;;20.10;52.00;;;;;;5019345;28;1407;-69
2021/03/11 09:48:47;;;;;;;;;;;20.10;52.10;;;;;;5032348;28;1264;-69
2021/03/11 09:51:13;;;;;;;;;;;20.10;52.10;;;;;;5033459;28;1235;-69
2021/03/11 09:53:43;;;;;;;;;;;20.10;52.10;;;;;;5021114;28;1342;-69
2021/03/11 09:56:18;;;;;;;;;;;20.10;52.10;;;;;;5032187;28;1324;-69
2021/03/11 09:58:44;;;;;;;;;;;20.10;52.10;;;;;;5033538;28;1017;-69
2021/03/11 10:01:10;;;;;;;;;;;20.10;52.20;;;;;;5012706;28;1337;-69
2021/03/11 10:03:35;;;;;;;;;;;20.10;52.20;;;;;;5026693;28;1898;-68
2021/03/11 10:06:01;;;;;;;;;;;20.10;52.20;;;;;;5012536;28;1363;-68
2021/03/11 10:08:28;;;;;;;;;;;20.10;52.20;;;;;;5012316;28;1291;-69
2021/03/11 10:10:57;;;;;;;;;;;20.10;52.30;;;;;;5031384;28;1442;-69
2021/03/11 10:13:35;;;;;;;;;;;20.10;52.30;;;;;;5019215;28;1313;-69
2021/03/11 10:16:01;;;;;;;;;;;20.00;52.20;;;;;;5021732;28;1232;-69
2021/03/11 10:18:27;;;;;;;;;;;20.00;52.30;;;;;;5031727;28;1072;-69
2021/03/11 10:20:59;;;;;;;;;;;20.00;52.30;;;;;;5033623;28;1314;-69
2021/03/11 10:23:24;;;;;;;;;;;20.00;52.30;;;;;;5031714;28;1973;-69
2021/03/11 10:26:08;;;;;;;;;;;20.00;52.40;;;;;;5033189;28;1216;-71
2021/03/11 10:28:34;;;;;;;;;;;20.00;52.40;;;;;;5034066;28;1281;-70
2021/03/11 10:30:59;;;;;;;;;;;20.00;52.40;;;;;;5026772;28;1318;-71
2021/03/11 10:33:25;;;;;;;;;;;20.00;52.40;;;;;;5030923;28;1364;-70
2021/03/11 10:35:50;;;;;;;;;;;20.00;52.40;;;;;;5004517;28;1327;-71
2021/03/11 10:38:19;;;;;;;;;;;20.00;52.50;;;;;;5026325;28;1921;-68
2021/03/11 10:40:45;;;;;;;;;;;20.00;52.40;;;;;;5031123;28;1299;-70
2021/03/11 10:43:20;;;;;;;;;;;19.90;52.40;;;;;;5030915;28;1894;-68
2021/03/11 10:45:46;;;;;;;;;;;20.00;52.50;;;;;;5032416;28;1326;-69
2021/03/11 10:48:12;;;;;;;;;;;20.00;52.50;;;;;;5032472;28;1351;-68
2021/03/11 10:50:38;;;;;;;;;;;19.90;52.40;;;;;;5032998;28;1521;-68
2021/03/11 10:53:04;;;;;;;;;;;19.90;52.40;;;;;;5031512;28;1382;-68
2021/03/11 10:55:30;;;;;;;;;;;19.90;52.40;;;;;;5032718;28;1375;-71
2021/03/11 10:57:56;;;;;;;;;;;19.90;52.50;;;;;;5032252;28;1382;-71
2021/03/11 11:00:23;;;;;;;;;;;19.90;52.50;;;;;;5031539;28;990;-70
2021/03/11 11:02:51;;;;;;;;;;;19.90;52.50;;;;;;5031429;28;1906;-71
2021/03/11 11:05:17;;;;;;;;;;;19.90;52.50;;;;;;5033441;28;1444;-70
2021/03/11 11:07:42;;;;;;;;;;;19.90;52.50;;;;;;5032380;28;1284;-71
2021/03/11 11:10:08;;;;;;;;;;;19.90;52.50;;;;;;5032569;28;1221;-70
2021/03/11 11:12:33;;;;;;;;;;;19.90;52.50;;;;;;5019275;28;1049;-69
2021/03/11 11:14:59;;;;;;;;;;;19.90;52.50;;;;;;5032700;28;1370;-69
2021/03/11 11:17:24;;;;;;;;;;;19.90;52.50;;;;;;5032450;28;1321;-70
2021/03/11 11:19:50;;;;;;;;;;;19.90;52.50;;;;;;5031530;28;1274;-70
2021/03/11 11:22:15;;;;;;;;;;;19.90;52.50;;;;;;5032391;28;1898;-70
2021/03/11 11:24:41;;;;;;;;;;;19.90;52.60;;;;;;5032458;28;1408;-71
2021/03/11 11:27:09;;;;;;;;;;;19.80;52.50;;;;;;5032049;28;1099;-69
2021/03/11 11:29:34;;;;;;;;;;;19.80;52.50;;;;;;5028029;28;2203;-70
2021/03/11 11:32:00;;;;;;;;;;;19.90;52.60;;;;;;5034382;28;1305;-72
2021/03/11 11:34:25;;;;;;;;;;;19.90;52.60;;;;;;5025603;28;1221;-72
2021/03/11 11:36:51;;;;;;;;;;;19.80;52.60;;;;;;5047479;28;1376;-72
2021/03/11 11:39:16;;;;;;;;;;;19.80;52.50;;;;;;5032319;28;1294;-71
2021/03/11 11:41:41;;;;;;;;;;;19.80;52.60;;;;;;5032656;28;1339;-72
2021/03/11 11:44:07;;;;;;;;;;;19.80;52.50;;;;;;5036075;28;1973;-73
2021/03/11 11:46:33;;;;;;;;;;;19.80;52.60;;;;;;5022595;28;1167;-73
2021/03/11 11:48:58;;;;;;;;;;;19.80;52.60;;;;;;5035794;28;1342;-73
2021/03/11 11:51:24;;;;;;;;;;;19.80;52.60;;;;;;5035902;28;1112;-73
2021/03/11 11:53:50;;;;;;;;;;;19.90;52.60;;;;;;5034646;28;1313;-74
2021/03/11 11:56:15;;;;;;;;;;;19.80;52.60;;;;;;5035898;28;1331;-73
2021/03/11 11:58:44;;;;;;;;;;;19.80;52.60;;;;;;5035995;28;1347;-72
2021/03/11 12:01:10;;;;;;;;;;;19.80;52.60;;;;;;5051277;28;1813;-72
2021/03/11 12:03:36;;;;;;;;;;;19.80;52.60;;;;;;5035592;28;1969;-73
2021/03/11 12:06:01;;;;;;;;;;;19.80;52.60;;;;;;5035578;28;1345;-72
2021/03/11 12:08:27;;;;;;;;;;;19.90;52.60;;;;;;5035285;28;1410;-74
2021/03/11 12:10:52;;;;;;;;;;;19.80;52.60;;;;;;5035450;28;1308;-73
2021/03/11 12:13:18;;;;;;;;;;;19.80;52.60;;;;;;5035647;28;1064;-72
2021/03/11 12:15:43;;;;;;;;;;;19.80;52.60;;;;;;5035488;28;1270;-72
2021/03/11 12:18:08;;;;;;;;;;;19.80;52.60;;;;;;5033835;28;1797;-72
2021/03/11 12:20:34;;;;;;;;;;;19.80;52.60;;;;;;5030554;28;1299;-72
2021/03/11 12:23:00;;;;;;;;;;;19.80;52.60;;;;;;5023083;28;1918;-72
2021/03/11 12:25:25;;;;;;;;;;;19.80;52.60;;;;;;5034117;28;1356;-72
2021/03/11 12:27:51;;;;;;;;;;;19.80;52.60;;;;;;5027720;28;1141;-72
2021/03/11 12:30:16;;;;;;;;;;;19.80;52.60;;;;;;5035391;28;1319;-72
2021/03/11 12:32:42;;;;;;;;;;;19.80;52.60;;;;;;5035335;28;1143;-72
2021/03/11 12:35:07;;;;;;;;;;;19.80;52.60;;;;;;5035279;28;1362;-73
2021/03/11 12:37:33;;;;;;;;;;;19.80;52.60;;;;;;5034798;28;1113;-72
2021/03/11 12:39:58;;;;;;;;;;;19.80;52.60;;;;;;5024684;28;1163;-72
2021/03/11 12:42:24;;;;;;;;;;;19.80;52.60;;;;;;5026897;28;1898;-73
2021/03/11 12:44:49;;;;;;;;;;;19.80;52.60;;;;;;5035206;28;1261;-72
2021/03/11 12:47:15;;;;;;;;;;;19.80;52.60;;;;;;5034692;28;1397;-72
2021/03/11 12:49:41;;;;;;;;;;;19.80;52.60;;;;;;5034929;28;1399;-73
2021/03/11 12:52:06;;;;;;;;;;;19.80;52.60;;;;;;5034820;28;1390;-73
2021/03/11 12:54:32;;;;;;;;;;;19.80;52.60;;;;;;5033417;28;2772;-72
2021/03/11 12:56:57;;;;;;;;;;;19.80;52.60;;;;;;5032364;28;1289;-71
2021/03/11 12:59:22;;;;;;;;;;;19.80;52.60;;;;;;5029729;28;1022;-69
2021/03/11 13:01:48;;;;;;;;;;;19.80;52.60;;;;;;5034167;28;1926;-70
2021/03/11 13:04:13;;;;;;;;;;;19.90;52.50;;;;;;5031449;28;1499;-71
2021/03/11 13:06:39;;;;;;;;;;;19.90;53.00;;;;;;5034245;28;1183;-71
2021/03/11 13:09:04;;;;;;;;;;;20.00;52.30;;;;;;5016007;28;1131;-70
2021/03/11 13:11:30;;;;;;;;;;;20.10;52.20;;;;;;5024407;28;1081;-70
2021/03/11 13:13:55;;;;;;;;;;;20.10;52.00;;;;;;5029830;28;1365;-71
2021/03/11 13:16:20;;;;;;;;;;;20.20;51.90;;;;;;5018592;28;2018;-70
2021/03/11 13:18:48;;;;;;;;;;;20.30;51.80;;;;;;5048954;28;1271;-70
2021/03/11 13:21:13;;;;;;;;;;;20.40;51.60;;;;;;5034209;28;1099;-71
2021/03/11 13:23:39;;;;;;;;;;;20.50;51.40;;;;;;5034039;28;1902;-71
2021/03/11 13:26:04;;;;;;;;;;;20.50;51.20;;;;;;5034074;28;1291;-71
2021/03/11 13:28:30;;;;;;;;;;;20.60;51.10;;;;;;5033960;28;1548;-70
2021/03/11 13:30:55;;;;;;;;;;;20.60;50.90;;;;;;5034084;28;1275;-71
2021/03/11 13:33:20;;;;;;;;;;;20.70;50.90;;;;;;5033983;28;1383;-71
2021/03/11 13:35:46;;;;;;;;;;;20.70;50.80;;;;;;5033972;28;1335;-71
2021/03/11 13:38:11;;;;;;;;;;;20.80;50.70;;;;;;5032666;28;1067;-70
2021/03/11 13:40:37;;;;;;;;;;;20.80;50.60;;;;;;5033785;28;1291;-71
2021/03/11 13:43:02;;;;;;;;;;;20.80;50.50;;;;;;5033454;28;1949;-71
2021/03/11 13:45:30;;;;;;;;;;;20.90;50.50;;;;;;5034059;28;1247;-71
2021/03/11 13:47:56;;;;;;;;;;;20.90;50.40;;;;;;5018914;28;1135;-71
2021/03/11 13:50:21;;;;;;;;;;;20.90;50.30;;;;;;5032940;28;915;-71
2021/03/11 13:52:47;;;;;;;;;;;21.00;50.90;;;;;;5033827;28;1357;-71
2021/03/11 13:55:13;;;;;;;;;;;21.00;50.20;;;;;;5033596;28;1336;-70
2021/03/11 13:57:38;;;;;;;;;;;21.00;50.20;;;;;;5030276;28;1119;-71
2021/03/11 14:00:05;;;;;;;;;;;21.00;50.10;;;;;;5023413;28;1277;-71
2021/03/11 14:02:30;;;;;;;;;;;21.10;50.10;;;;;;5032116;28;1969;-71
2021/03/11 14:04:56;;;;;;;;;;;21.10;50.10;;;;;;5033011;28;1330;-70
2021/03/11 14:07:21;;;;;;;;;;;21.10;50.10;;;;;;5044839;28;1347;-70
2021/03/11 14:09:47;;;;;;;;;;;21.10;50.10;;;;;;5023897;28;1210;-71
2021/03/11 14:12:12;;;;;;;;;;;21.10;50.00;;;;;;5019848;28;1115;-70
2021/03/11 14:14:38;;;;;;;;;;;21.10;50.00;;;;;;5033359;28;1304;-70
2021/03/11 14:17:03;;;;;;;;;;;21.10;50.00;;;;;;5032991;28;1319;-70
2021/03/11 14:19:28;;;;;;;;;;;21.20;50.00;;;;;;5033303;28;1076;-71
2021/03/11 14:21:54;;;;;;;;;;;21.20;50.00;;;;;;5033135;28;1910;-71
2021/03/11 14:24:19;;;;;;;;;;;21.10;50.60;;;;;;5032835;28;1411;-71
2021/03/11 14:26:45;;;;;;;;;;;21.20;50.10;;;;;;5033270;28;1355;-70
2021/03/11 14:29:10;;;;;;;;;;;21.20;50.10;;;;;;5031706;28;1093;-71